Terminal Aerodrome Forecast
Issued by NWS

Home | Current Version | Previous Version | Graphics & Text | Print | Product List | Glossary On
Versions: 1 2 3 4 5 6 7 8 9 10 11 12 13 14
823
FTUS43 KGRB 262054 AAA
TAFMTW
TAF AMD
KMTW 262054Z 2621/2718 21014G20KT P6SM VCSH BKN025 OVC060
      TEMPO 2621/2624 6SM BR SCT006 OVC010
     FM270000 23006KT P6SM -SHRA SCT020 OVC050
     FM270300 28005KT 6SM SHRA OVC020
     FM270700 32007KT 4SM SHRA OVC008
     FM271700 27010KT 6SM -SHRA OVC010=

USA.gov is the U.S. government's official web portal to all federal, state and local government web resources and services.